sensor_id;sensor_type;location;lat;lon;timestamp;P1;durP1;ratioP1;P2;durP2;ratioP2
10174;SDS011;18221;38.704;0.152;2023-04-27T00:03:55;19.90;;;14.50;;
10174;SDS011;18221;38.704;0.152;2023-04-27T00:06:24;16.97;;;13.37;;
10174;SDS011;18221;38.704;0.152;2023-04-27T00:08:52;16.07;;;13.10;;
10174;SDS011;18221;38.704;0.152;2023-04-27T00:11:22;18.30;;;12.93;;
10174;SDS011;18221;38.704;0.152;2023-04-27T00:13:50;18.37;;;13.73;;
10174;SDS011;18221;38.704;0.152;2023-04-27T00:16:18;17.63;;;13.67;;
10174;SDS011;18221;38.704;0.152;2023-04-27T00:18:47;16.03;;;12.60;;
10174;SDS011;18221;38.704;0.152;2023-04-27T00:21:16;16.93;;;12.77;;
10174;SDS011;18221;38.704;0.152;2023-04-27T00:23:45;17.17;;;12.73;;
10174;SDS011;18221;38.704;0.152;2023-04-27T00:26:14;15.17;;;13.40;;
10174;SDS011;18221;38.704;0.152;2023-04-27T00:28:43;15.13;;;12.67;;
10174;SDS011;18221;38.704;0.152;2023-04-27T00:31:12;19.57;;;13.67;;
10174;SDS011;18221;38.704;0.152;2023-04-27T00:33:40;20.70;;;12.63;;
10174;SDS011;18221;38.704;0.152;2023-04-27T00:36:21;14.83;;;13.10;;
10174;SDS011;18221;38.704;0.152;2023-04-27T00:38:51;20.33;;;13.70;;
10174;SDS011;18221;38.704;0.152;2023-04-27T00:41:20;22.20;;;13.13;;
10174;SDS011;18221;38.704;0.152;2023-04-27T00:43:52;15.07;;;12.50;;
10174;SDS011;18221;38.704;0.152;2023-04-27T00:46:21;15.93;;;13.43;;
10174;SDS011;18221;38.704;0.152;2023-04-27T00:48:50;20.03;;;12.83;;
10174;SDS011;18221;38.704;0.152;2023-04-27T00:51:19;17.83;;;12.87;;
10174;SDS011;18221;38.704;0.152;2023-04-27T00:53:55;18.17;;;13.43;;
10174;SDS011;18221;38.704;0.152;2023-04-27T00:56:25;16.57;;;13.27;;
10174;SDS011;18221;38.704;0.152;2023-04-27T00:58:53;18.70;;;13.50;;
10174;SDS011;18221;38.704;0.152;2023-04-27T01:01:22;17.83;;;13.33;;
10174;SDS011;18221;38.704;0.152;2023-04-27T01:03:51;20.33;;;14.33;;
10174;SDS011;18221;38.704;0.152;2023-04-27T01:06:22;19.33;;;14.13;;
10174;SDS011;18221;38.704;0.152;2023-04-27T01:08:52;18.83;;;13.60;;
10174;SDS011;18221;38.704;0.152;2023-04-27T01:11:21;22.53;;;13.87;;
10174;SDS011;18221;38.704;0.152;2023-04-27T01:13:49;20.33;;;13.97;;
10174;SDS011;18221;38.704;0.152;2023-04-27T01:16:19;21.57;;;13.87;;
10174;SDS011;18221;38.704;0.152;2023-04-27T01:18:48;21.63;;;13.70;;
10174;SDS011;18221;38.704;0.152;2023-04-27T01:21:16;16.23;;;13.63;;
10174;SDS011;18221;38.704;0.152;2023-04-27T01:23:47;20.57;;;13.43;;
10174;SDS011;18221;38.704;0.152;2023-04-27T01:26:15;16.27;;;13.37;;
10174;SDS011;18221;38.704;0.152;2023-04-27T01:28:43;19.87;;;13.77;;
10174;SDS011;18221;38.704;0.152;2023-04-27T01:31:12;17.33;;;13.40;;
10174;SDS011;18221;38.704;0.152;2023-04-27T01:33:41;18.03;;;13.20;;
10174;SDS011;18221;38.704;0.152;2023-04-27T01:36:09;16.97;;;14.03;;
10174;SDS011;18221;38.704;0.152;2023-04-27T01:38:38;19.23;;;13.30;;
10174;SDS011;18221;38.704;0.152;2023-04-27T01:41:08;20.70;;;13.63;;
10174;SDS011;18221;38.704;0.152;2023-04-27T01:43:37;20.97;;;14.20;;
10174;SDS011;18221;38.704;0.152;2023-04-27T01:46:06;18.63;;;14.33;;
10174;SDS011;18221;38.704;0.152;2023-04-27T01:48:36;20.83;;;13.20;;
10174;SDS011;18221;38.704;0.152;2023-04-27T01:54:11;17.63;;;13.23;;
10174;SDS011;18221;38.704;0.152;2023-04-27T01:56:41;14.97;;;11.23;;
10174;SDS011;18221;38.704;0.152;2023-04-27T01:59:09;15.67;;;11.17;;
10174;SDS011;18221;38.704;0.152;2023-04-27T02:01:38;15.93;;;11.27;;
10174;SDS011;18221;38.704;0.152;2023-04-27T02:04:08;16.37;;;11.27;;
10174;SDS011;18221;38.704;0.152;2023-04-27T02:06:37;17.57;;;11.77;;
10174;SDS011;18221;38.704;0.152;2023-04-27T02:09:05;19.30;;;12.37;;
10174;SDS011;18221;38.704;0.152;2023-04-27T02:11:34;14.30;;;11.77;;
10174;SDS011;18221;38.704;0.152;2023-04-27T02:14:03;16.90;;;11.97;;
10174;SDS011;18221;38.704;0.152;2023-04-27T02:16:32;15.43;;;12.57;;
10174;SDS011;18221;38.704;0.152;2023-04-27T02:19:01;17.87;;;12.80;;
10174;SDS011;18221;38.704;0.152;2023-04-27T02:21:29;16.27;;;12.50;;
10174;SDS011;18221;38.704;0.152;2023-04-27T02:23:57;17.60;;;12.87;;
10174;SDS011;18221;38.704;0.152;2023-04-27T02:26:26;22.53;;;14.40;;
10174;SDS011;18221;38.704;0.152;2023-04-27T02:28:55;16.93;;;14.57;;
10174;SDS011;18221;38.704;0.152;2023-04-27T02:31:28;21.93;;;14.47;;
10174;SDS011;18221;38.704;0.152;2023-04-27T02:33:56;16.23;;;14.13;;
10174;SDS011;18221;38.704;0.152;2023-04-27T02:36:24;18.83;;;14.97;;
10174;SDS011;18221;38.704;0.152;2023-04-27T02:38:53;19.53;;;14.87;;
10174;SDS011;18221;38.704;0.152;2023-04-27T02:41:25;20.50;;;14.10;;
10174;SDS011;18221;38.704;0.152;2023-04-27T02:43:53;17.23;;;13.30;;
10174;SDS011;18221;38.704;0.152;2023-04-27T02:46:22;18.60;;;13.60;;
10174;SDS011;18221;38.704;0.152;2023-04-27T02:48:53;19.10;;;14.40;;
10174;SDS011;18221;38.704;0.152;2023-04-27T02:51:22;19.50;;;14.27;;
10174;SDS011;18221;38.704;0.152;2023-04-27T02:56:38;21.73;;;14.80;;
10174;SDS011;18221;38.704;0.152;2023-04-27T02:59:07;20.97;;;14.73;;
10174;SDS011;18221;38.704;0.152;2023-04-27T03:01:35;19.90;;;13.90;;
10174;SDS011;18221;38.704;0.152;2023-04-27T03:04:06;17.50;;;13.70;;
10174;SDS011;18221;38.704;0.152;2023-04-27T03:06:35;20.47;;;13.93;;
10174;SDS011;18221;38.704;0.152;2023-04-27T03:09:03;22.37;;;14.63;;
10174;SDS011;18221;38.704;0.152;2023-04-27T03:11:31;18.67;;;13.47;;
10174;SDS011;18221;38.704;0.152;2023-04-27T03:14:00;20.13;;;14.27;;
10174;SDS011;18221;38.704;0.152;2023-04-27T03:16:30;19.30;;;14.23;;
10174;SDS011;18221;38.704;0.152;2023-04-27T03:19:00;20.53;;;14.40;;
10174;SDS011;18221;38.704;0.152;2023-04-27T03:21:30;18.63;;;13.73;;
10174;SDS011;18221;38.704;0.152;2023-04-27T03:23:59;19.43;;;13.83;;
10174;SDS011;18221;38.704;0.152;2023-04-27T03:26:27;21.67;;;15.03;;
10174;SDS011;18221;38.704;0.152;2023-04-27T03:28:56;20.67;;;14.83;;
10174;SDS011;18221;38.704;0.152;2023-04-27T03:31:28;19.43;;;13.63;;
10174;SDS011;18221;38.704;0.152;2023-04-27T03:33:56;20.40;;;14.77;;
10174;SDS011;18221;38.704;0.152;2023-04-27T03:36:26;19.00;;;13.83;;
10174;SDS011;18221;38.704;0.152;2023-04-27T03:38:58;20.20;;;16.03;;
10174;SDS011;18221;38.704;0.152;2023-04-27T03:41:26;21.00;;;15.13;;
10174;SDS011;18221;38.704;0.152;2023-04-27T03:43:54;21.70;;;15.67;;
10174;SDS011;18221;38.704;0.152;2023-04-27T03:46:23;18.13;;;13.47;;
10174;SDS011;18221;38.704;0.152;2023-04-27T03:48:52;19.60;;;13.77;;
10174;SDS011;18221;38.704;0.152;2023-04-27T03:51:20;22.07;;;13.73;;
10174;SDS011;18221;38.704;0.152;2023-04-27T03:53:49;19.50;;;13.80;;
10174;SDS011;18221;38.704;0.152;2023-04-27T03:56:19;20.50;;;14.37;;
10174;SDS011;18221;38.704;0.152;2023-04-27T03:58:48;20.03;;;14.17;;
10174;SDS011;18221;38.704;0.152;2023-04-27T04:01:16;24.33;;;15.50;;
10174;SDS011;18221;38.704;0.152;2023-04-27T04:03:46;21.80;;;16.27;;
10174;SDS011;18221;38.704;0.152;2023-04-27T04:06:16;19.27;;;14.57;;
10174;SDS011;18221;38.704;0.152;2023-04-27T04:08:44;21.50;;;14.37;;
10174;SDS011;18221;38.704;0.152;2023-04-27T04:11:13;15.27;;;13.67;;
10174;SDS011;18221;38.704;0.152;2023-04-27T04:13:43;18.07;;;13.07;;
10174;SDS011;18221;38.704;0.152;2023-04-27T04:16:11;19.43;;;12.73;;
10174;SDS011;18221;38.704;0.152;2023-04-27T04:18:44;13.90;;;11.67;;
10174;SDS011;18221;38.704;0.152;2023-04-27T04:21:12;16.70;;;12.60;;
10174;SDS011;18221;38.704;0.152;2023-04-27T04:23:41;15.97;;;11.20;;
10174;SDS011;18221;38.704;0.152;2023-04-27T04:26:10;18.33;;;13.40;;
10174;SDS011;18221;38.704;0.152;2023-04-27T04:28:39;19.00;;;13.90;;
10174;SDS011;18221;38.704;0.152;2023-04-27T04:31:09;17.53;;;13.93;;
10174;SDS011;18221;38.704;0.152;2023-04-27T04:33:39;20.83;;;14.53;;
10174;SDS011;18221;38.704;0.152;2023-04-27T04:36:07;22.33;;;15.67;;
10174;SDS011;18221;38.704;0.152;2023-04-27T04:38:37;21.50;;;15.37;;
10174;SDS011;18221;38.704;0.152;2023-04-27T04:41:05;21.17;;;15.10;;
10174;SDS011;18221;38.704;0.152;2023-04-27T04:43:34;20.00;;;15.03;;
10174;SDS011;18221;38.704;0.152;2023-04-27T04:46:02;17.93;;;14.90;;
10174;SDS011;18221;38.704;0.152;2023-04-27T04:48:33;20.90;;;14.43;;
10174;SDS011;18221;38.704;0.152;2023-04-27T04:51:01;20.73;;;15.53;;
10174;SDS011;18221;38.704;0.152;2023-04-27T04:53:32;19.63;;;15.03;;
10174;SDS011;18221;38.704;0.152;2023-04-27T04:56:06;25.73;;;15.70;;
10174;SDS011;18221;38.704;0.152;2023-04-27T04:58:35;19.83;;;15.20;;
10174;SDS011;18221;38.704;0.152;2023-04-27T05:01:04;18.63;;;15.37;;
10174;SDS011;18221;38.704;0.152;2023-04-27T05:03:34;25.13;;;15.87;;
10174;SDS011;18221;38.704;0.152;2023-04-27T05:06:02;22.03;;;16.30;;
10174;SDS011;18221;38.704;0.152;2023-04-27T05:08:32;23.83;;;16.23;;
10174;SDS011;18221;38.704;0.152;2023-04-27T05:11:19;23.40;;;15.77;;
10174;SDS011;18221;38.704;0.152;2023-04-27T05:13:48;20.80;;;15.20;;
10174;SDS011;18221;38.704;0.152;2023-04-27T05:16:16;18.60;;;14.57;;
10174;SDS011;18221;38.704;0.152;2023-04-27T05:18:46;22.40;;;15.33;;
10174;SDS011;18221;38.704;0.152;2023-04-27T05:21:16;22.43;;;15.13;;
10174;SDS011;18221;38.704;0.152;2023-04-27T05:23:46;20.27;;;15.83;;
10174;SDS011;18221;38.704;0.152;2023-04-27T05:26:15;26.00;;;15.93;;
10174;SDS011;18221;38.704;0.152;2023-04-27T05:28:44;22.50;;;15.27;;
10174;SDS011;18221;38.704;0.152;2023-04-27T05:31:13;23.03;;;15.93;;
10174;SDS011;18221;38.704;0.152;2023-04-27T05:33:41;21.43;;;16.67;;
10174;SDS011;18221;38.704;0.152;2023-04-27T05:36:12;20.17;;;15.27;;
10174;SDS011;18221;38.704;0.152;2023-04-27T05:38:40;20.00;;;15.43;;
10174;SDS011;18221;38.704;0.152;2023-04-27T05:41:09;17.10;;;15.10;;
10174;SDS011;18221;38.704;0.152;2023-04-27T05:43:38;18.30;;;15.63;;
10174;SDS011;18221;38.704;0.152;2023-04-27T05:46:07;21.90;;;15.73;;
10174;SDS011;18221;38.704;0.152;2023-04-27T05:48:39;19.83;;;13.57;;
10174;SDS011;18221;38.704;0.152;2023-04-27T05:51:08;15.87;;;13.43;;
10174;SDS011;18221;38.704;0.152;2023-04-27T05:53:38;18.87;;;12.47;;
10174;SDS011;18221;38.704;0.152;2023-04-27T05:56:07;13.93;;;10.97;;
10174;SDS011;18221;38.704;0.152;2023-04-27T05:58:36;15.93;;;12.10;;
10174;SDS011;18221;38.704;0.152;2023-04-27T06:01:04;20.43;;;13.47;;
10174;SDS011;18221;38.704;0.152;2023-04-27T06:03:33;14.10;;;11.53;;
10174;SDS011;18221;38.704;0.152;2023-04-27T06:06:01;15.33;;;11.50;;
10174;SDS011;18221;38.704;0.152;2023-04-27T06:08:30;13.77;;;10.40;;
10174;SDS011;18221;38.704;0.152;2023-04-27T06:11:18;10.80;;;9.70;;
10174;SDS011;18221;38.704;0.152;2023-04-27T06:13:48;12.80;;;10.30;;
10174;SDS011;18221;38.704;0.152;2023-04-27T06:16:16;11.60;;;9.33;;
10174;SDS011;18221;38.704;0.152;2023-04-27T06:18:45;12.83;;;9.67;;
10174;SDS011;18221;38.704;0.152;2023-04-27T06:21:22;12.53;;;10.23;;
10174;SDS011;18221;38.704;0.152;2023-04-27T06:23:51;11.43;;;10.13;;
10174;SDS011;18221;38.704;0.152;2023-04-27T06:26:21;16.53;;;11.73;;
10174;SDS011;18221;38.704;0.152;2023-04-27T06:28:50;14.10;;;11.90;;
10174;SDS011;18221;38.704;0.152;2023-04-27T06:31:19;10.60;;;9.47;;
10174;SDS011;18221;38.704;0.152;2023-04-27T06:33:53;15.60;;;9.77;;
10174;SDS011;18221;38.704;0.152;2023-04-27T06:36:22;15.17;;;11.40;;
10174;SDS011;18221;38.704;0.152;2023-04-27T06:38:52;14.03;;;10.63;;
10174;SDS011;18221;38.704;0.152;2023-04-27T06:41:23;12.33;;;9.33;;
10174;SDS011;18221;38.704;0.152;2023-04-27T06:43:52;12.53;;;9.63;;
10174;SDS011;18221;38.704;0.152;2023-04-27T06:46:21;10.83;;;8.70;;
10174;SDS011;18221;38.704;0.152;2023-04-27T06:48:50;13.17;;;9.53;;
10174;SDS011;18221;38.704;0.152;2023-04-27T06:51:19;12.53;;;9.80;;
10174;SDS011;18221;38.704;0.152;2023-04-27T06:53:48;10.87;;;8.93;;
10174;SDS011;18221;38.704;0.152;2023-04-27T06:56:16;12.40;;;9.17;;
10174;SDS011;18221;38.704;0.152;2023-04-27T06:58:48;10.53;;;9.00;;
10174;SDS011;18221;38.704;0.152;2023-04-27T07:01:17;11.17;;;8.60;;
10174;SDS011;18221;38.704;0.152;2023-04-27T07:03:45;9.73;;;8.47;;
10174;SDS011;18221;38.704;0.152;2023-04-27T07:06:14;11.87;;;8.80;;
10174;SDS011;18221;38.704;0.152;2023-04-27T07:08:44;11.37;;;8.70;;
10174;SDS011;18221;38.704;0.152;2023-04-27T07:11:13;9.87;;;8.60;;
10174;SDS011;18221;38.704;0.152;2023-04-27T07:13:42;11.90;;;8.37;;
10174;SDS011;18221;38.704;0.152;2023-04-27T07:16:13;11.33;;;7.63;;
10174;SDS011;18221;38.704;0.152;2023-04-27T07:18:42;14.87;;;8.60;;
10174;SDS011;18221;38.704;0.152;2023-04-27T07:21:29;14.37;;;9.47;;
10174;SDS011;18221;38.704;0.152;2023-04-27T07:23:58;13.37;;;8.37;;
10174;SDS011;18221;38.704;0.152;2023-04-27T07:26:26;16.27;;;9.57;;
10174;SDS011;18221;38.704;0.152;2023-04-27T07:28:56;15.83;;;8.60;;
10174;SDS011;18221;38.704;0.152;2023-04-27T07:31:26;12.13;;;8.93;;
10174;SDS011;18221;38.704;0.152;2023-04-27T07:36:30;9.50;;;7.37;;
10174;SDS011;18221;38.704;0.152;2023-04-27T07:39:02;13.40;;;7.10;;
10174;SDS011;18221;38.704;0.152;2023-04-27T07:41:32;8.37;;;6.30;;
10174;SDS011;18221;38.704;0.152;2023-04-27T07:44:01;11.27;;;6.37;;
10174;SDS011;18221;38.704;0.152;2023-04-27T07:46:32;10.20;;;5.90;;
10174;SDS011;18221;38.704;0.152;2023-04-27T07:49:02;8.70;;;5.43;;
10174;SDS011;18221;38.704;0.152;2023-04-27T07:51:31;7.37;;;5.23;;
10174;SDS011;18221;38.704;0.152;2023-04-27T07:53:59;7.87;;;5.13;;
10174;SDS011;18221;38.704;0.152;2023-04-27T07:56:41;8.97;;;5.73;;
10174;SDS011;18221;38.704;0.152;2023-04-27T07:59:10;8.97;;;5.70;;
10174;SDS011;18221;38.704;0.152;2023-04-27T08:01:41;7.27;;;5.57;;
10174;SDS011;18221;38.704;0.152;2023-04-27T08:04:09;10.80;;;5.17;;
10174;SDS011;18221;38.704;0.152;2023-04-27T08:06:38;8.00;;;5.43;;
10174;SDS011;18221;38.704;0.152;2023-04-27T08:09:06;9.90;;;6.50;;
10174;SDS011;18221;38.704;0.152;2023-04-27T08:11:34;8.10;;;5.77;;
10174;SDS011;18221;38.704;0.152;2023-04-27T08:14:03;7.37;;;5.50;;
10174;SDS011;18221;38.704;0.152;2023-04-27T08:16:33;13.83;;;6.70;;
10174;SDS011;18221;38.704;0.152;2023-04-27T08:19:03;7.27;;;5.47;;
10174;SDS011;18221;38.704;0.152;2023-04-27T08:21:32;7.97;;;5.50;;
10174;SDS011;18221;38.704;0.152;2023-04-27T08:24:01;10.73;;;6.27;;
10174;SDS011;18221;38.704;0.152;2023-04-27T08:26:30;12.97;;;5.87;;
10174;SDS011;18221;38.704;0.152;2023-04-27T08:28:59;8.43;;;5.57;;
10174;SDS011;18221;38.704;0.152;2023-04-27T08:31:28;11.90;;;5.83;;
10174;SDS011;18221;38.704;0.152;2023-04-27T08:33:56;9.77;;;5.60;;
10174;SDS011;18221;38.704;0.152;2023-04-27T08:36:26;11.67;;;6.33;;
10174;SDS011;18221;38.704;0.152;2023-04-27T08:38:55;8.77;;;6.17;;
10174;SDS011;18221;38.704;0.152;2023-04-27T08:41:23;7.83;;;5.73;;
10174;SDS011;18221;38.704;0.152;2023-04-27T08:43:51;11.73;;;5.90;;
10174;SDS011;18221;38.704;0.152;2023-04-27T08:46:21;8.80;;;5.53;;
10174;SDS011;18221;38.704;0.152;2023-04-27T08:48:51;9.00;;;5.40;;
10174;SDS011;18221;38.704;0.152;2023-04-27T08:51:21;10.20;;;5.67;;
10174;SDS011;18221;38.704;0.152;2023-04-27T08:53:53;8.70;;;5.50;;
10174;SDS011;18221;38.704;0.152;2023-04-27T08:56:25;7.97;;;5.57;;
10174;SDS011;18221;38.704;0.152;2023-04-27T08:58:55;11.27;;;5.83;;
10174;SDS011;18221;38.704;0.152;2023-04-27T09:01:28;10.00;;;5.63;;
10174;SDS011;18221;38.704;0.152;2023-04-27T09:03:58;7.67;;;5.60;;
10174;SDS011;18221;38.704;0.152;2023-04-27T09:06:28;7.93;;;5.63;;
10174;SDS011;18221;38.704;0.152;2023-04-27T09:09:21;9.13;;;5.50;;
10174;SDS011;18221;38.704;0.152;2023-04-27T09:11:51;9.87;;;5.57;;
10174;SDS011;18221;38.704;0.152;2023-04-27T09:14:20;7.60;;;4.80;;
10174;SDS011;18221;38.704;0.152;2023-04-27T09:16:53;7.03;;;5.10;;
10174;SDS011;18221;38.704;0.152;2023-04-27T09:19:24;12.57;;;5.63;;
10174;SDS011;18221;38.704;0.152;2023-04-27T09:22:04;7.27;;;5.37;;
10174;SDS011;18221;38.704;0.152;2023-04-27T09:24:36;7.03;;;5.90;;
10174;SDS011;18221;38.704;0.152;2023-04-27T09:27:18;8.63;;;5.67;;
10174;SDS011;18221;38.704;0.152;2023-04-27T09:29:47;9.37;;;5.53;;
10174;SDS011;18221;38.704;0.152;2023-04-27T09:32:17;9.27;;;5.30;;
10174;SDS011;18221;38.704;0.152;2023-04-27T09:34:46;6.33;;;5.20;;
10174;SDS011;18221;38.704;0.152;2023-04-27T09:37:15;10.33;;;5.87;;
10174;SDS011;18221;38.704;0.152;2023-04-27T09:39:46;9.30;;;5.20;;
10174;SDS011;18221;38.704;0.152;2023-04-27T09:42:15;8.37;;;5.57;;
10174;SDS011;18221;38.704;0.152;2023-04-27T09:44:44;8.60;;;5.60;;
10174;SDS011;18221;38.704;0.152;2023-04-27T09:47:13;8.07;;;5.60;;
10174;SDS011;18221;38.704;0.152;2023-04-27T09:49:42;8.63;;;5.50;;
10174;SDS011;18221;38.704;0.152;2023-04-27T09:52:11;7.80;;;5.70;;
10174;SDS011;18221;38.704;0.152;2023-04-27T09:54:40;9.73;;;5.80;;
10174;SDS011;18221;38.704;0.152;2023-04-27T10:00:12;10.33;;;5.50;;
10174;SDS011;18221;38.704;0.152;2023-04-27T10:03:06;10.80;;;6.17;;
10174;SDS011;18221;38.704;0.152;2023-04-27T10:06:10;9.17;;;5.37;;
10174;SDS011;18221;38.704;0.152;2023-04-27T10:11:55;8.93;;;5.70;;
10174;SDS011;18221;38.704;0.152;2023-04-27T10:14:52;17.57;;;6.30;;
10174;SDS011;18221;38.704;0.152;2023-04-27T10:17:23;11.70;;;5.90;;
10174;SDS011;18221;38.704;0.152;2023-04-27T10:19:57;9.87;;;5.67;;
10174;SDS011;18221;38.704;0.152;2023-04-27T10:22:44;8.20;;;5.03;;
10174;SDS011;18221;38.704;0.152;2023-04-27T10:25:18;9.90;;;5.00;;
10174;SDS011;18221;38.704;0.152;2023-04-27T10:27:50;8.57;;;5.10;;
10174;SDS011;18221;38.704;0.152;2023-04-27T10:30:23;7.83;;;5.00;;
10174;SDS011;18221;38.704;0.152;2023-04-27T10:32:57;6.53;;;4.90;;
10174;SDS011;18221;38.704;0.152;2023-04-27T10:35:33;6.03;;;4.63;;
10174;SDS011;18221;38.704;0.152;2023-04-27T10:38:04;6.63;;;4.47;;
10174;SDS011;18221;38.704;0.152;2023-04-27T10:40:35;6.97;;;4.33;;
10174;SDS011;18221;38.704;0.152;2023-04-27T10:43:07;8.10;;;5.00;;
10174;SDS011;18221;38.704;0.152;2023-04-27T10:45:39;6.60;;;4.80;;
10174;SDS011;18221;38.704;0.152;2023-04-27T10:48:10;7.37;;;5.20;;
10174;SDS011;18221;38.704;0.152;2023-04-27T10:50:40;7.87;;;5.00;;
10174;SDS011;18221;38.704;0.152;2023-04-27T10:53:11;9.03;;;4.80;;
10174;SDS011;18221;38.704;0.152;2023-04-27T10:55:40;9.40;;;4.83;;
10174;SDS011;18221;38.704;0.152;2023-04-27T10:58:08;7.03;;;4.77;;
10174;SDS011;18221;38.704;0.152;2023-04-27T11:00:39;8.90;;;4.83;;
10174;SDS011;18221;38.704;0.152;2023-04-27T11:03:11;6.90;;;4.43;;
10174;SDS011;18221;38.704;0.152;2023-04-27T11:05:42;5.13;;;4.20;;
10174;SDS011;18221;38.704;0.152;2023-04-27T11:08:12;8.63;;;4.50;;
10174;SDS011;18221;38.704;0.152;2023-04-27T11:10:43;9.63;;;4.70;;
10174;SDS011;18221;38.704;0.152;2023-04-27T11:13:14;7.83;;;5.17;;
10174;SDS011;18221;38.704;0.152;2023-04-27T11:15:47;8.60;;;4.33;;
10174;SDS011;18221;38.704;0.152;2023-04-27T11:18:19;7.70;;;4.27;;
10174;SDS011;18221;38.704;0.152;2023-04-27T11:20:50;7.47;;;4.53;;
10174;SDS011;18221;38.704;0.152;2023-04-27T11:23:26;8.27;;;4.57;;
10174;SDS011;18221;38.704;0.152;2023-04-27T11:26:07;9.57;;;4.60;;
10174;SDS011;18221;38.704;0.152;2023-04-27T11:28:38;5.80;;;4.23;;
10174;SDS011;18221;38.704;0.152;2023-04-27T11:31:09;7.40;;;4.70;;
10174;SDS011;18221;38.704;0.152;2023-04-27T11:33:46;6.27;;;4.50;;
10174;SDS011;18221;38.704;0.152;2023-04-27T11:36:15;7.43;;;4.37;;
10174;SDS011;18221;38.704;0.152;2023-04-27T11:38:45;8.33;;;4.47;;
10174;SDS011;18221;38.704;0.152;2023-04-27T11:41:14;8.20;;;4.53;;
10174;SDS011;18221;38.704;0.152;2023-04-27T11:43:43;7.33;;;4.37;;
10174;SDS011;18221;38.704;0.152;2023-04-27T11:46:18;7.67;;;4.10;;
10174;SDS011;18221;38.704;0.152;2023-04-27T11:48:48;9.13;;;4.60;;
10174;SDS011;18221;38.704;0.152;2023-04-27T11:51:17;11.13;;;4.77;;
10174;SDS011;18221;38.704;0.152;2023-04-27T11:53:46;6.23;;;4.17;;
10174;SDS011;18221;38.704;0.152;2023-04-27T11:56:16;9.53;;;4.77;;
10174;SDS011;18221;38.704;0.152;2023-04-27T11:58:45;5.57;;;4.17;;
10174;SDS011;18221;38.704;0.152;2023-04-27T12:01:15;6.17;;;4.30;;
10174;SDS011;18221;38.704;0.152;2023-04-27T12:03:44;6.93;;;4.30;;
10174;SDS011;18221;38.704;0.152;2023-04-27T12:06:13;6.07;;;3.73;;
10174;SDS011;18221;38.704;0.152;2023-04-27T12:08:41;7.20;;;4.23;;
10174;SDS011;18221;38.704;0.152;2023-04-27T12:11:10;8.33;;;4.30;;
10174;SDS011;18221;38.704;0.152;2023-04-27T12:13:39;8.50;;;4.20;;
10174;SDS011;18221;38.704;0.152;2023-04-27T12:16:08;5.77;;;3.90;;
10174;SDS011;18221;38.704;0.152;2023-04-27T12:18:38;7.93;;;4.50;;
10174;SDS011;18221;38.704;0.152;2023-04-27T12:21:07;8.03;;;4.13;;
10174;SDS011;18221;38.704;0.152;2023-04-27T12:23:36;6.93;;;3.73;;
10174;SDS011;18221;38.704;0.152;2023-04-27T12:26:06;7.43;;;3.50;;
10174;SDS011;18221;38.704;0.152;2023-04-27T12:28:35;5.37;;;3.40;;
10174;SDS011;18221;38.704;0.152;2023-04-27T12:31:06;9.43;;;3.40;;
10174;SDS011;18221;38.704;0.152;2023-04-27T12:33:36;7.10;;;3.03;;
10174;SDS011;18221;38.704;0.152;2023-04-27T12:36:06;4.17;;;2.83;;
10174;SDS011;18221;38.704;0.152;2023-04-27T12:38:44;4.00;;;2.60;;
10174;SDS011;18221;38.704;0.152;2023-04-27T12:41:13;4.07;;;2.30;;
10174;SDS011;18221;38.704;0.152;2023-04-27T12:43:41;4.07;;;2.47;;
10174;SDS011;18221;38.704;0.152;2023-04-27T12:46:10;4.50;;;2.23;;
10174;SDS011;18221;38.704;0.152;2023-04-27T12:48:40;3.27;;;1.93;;
10174;SDS011;18221;38.704;0.152;2023-04-27T12:51:09;5.23;;;2.50;;
10174;SDS011;18221;38.704;0.152;2023-04-27T12:53:38;5.63;;;2.27;;
10174;SDS011;18221;38.704;0.152;2023-04-27T12:56:07;3.50;;;2.23;;
10174;SDS011;18221;38.704;0.152;2023-04-27T12:58:35;4.70;;;2.47;;
10174;SDS011;18221;38.704;0.152;2023-04-27T13:01:06;5.20;;;2.23;;
10174;SDS011;18221;38.704;0.152;2023-04-27T13:03:40;3.70;;;2.10;;
10174;SDS011;18221;38.704;0.152;2023-04-27T13:06:10;3.90;;;2.33;;
10174;SDS011;18221;38.704;0.152;2023-04-27T13:08:39;3.67;;;2.00;;
10174;SDS011;18221;38.704;0.152;2023-04-27T13:11:09;3.67;;;2.00;;
10174;SDS011;18221;38.704;0.152;2023-04-27T13:13:38;5.80;;;2.40;;
10174;SDS011;18221;38.704;0.152;2023-04-27T13:16:12;2.73;;;1.93;;
10174;SDS011;18221;38.704;0.152;2023-04-27T13:18:45;3.80;;;1.80;;
10174;SDS011;18221;38.704;0.152;2023-04-27T13:21:16;3.73;;;2.00;;
10174;SDS011;18221;38.704;0.152;2023-04-27T13:23:45;2.40;;;1.60;;
10174;SDS011;18221;38.704;0.152;2023-04-27T13:26:15;4.17;;;1.77;;
10174;SDS011;18221;38.704;0.152;2023-04-27T13:28:44;3.43;;;1.80;;
10174;SDS011;18221;38.704;0.152;2023-04-27T13:31:15;5.50;;;1.83;;
10174;SDS011;18221;38.704;0.152;2023-04-27T13:33:45;3.10;;;2.00;;
10174;SDS011;18221;38.704;0.152;2023-04-27T13:36:13;5.00;;;1.77;;
10174;SDS011;18221;38.704;0.152;2023-04-27T13:38:42;5.80;;;1.60;;
10174;SDS011;18221;38.704;0.152;2023-04-27T13:41:10;4.77;;;2.00;;
10174;SDS011;18221;38.704;0.152;2023-04-27T13:43:39;4.53;;;1.97;;
10174;SDS011;18221;38.704;0.152;2023-04-27T13:46:08;6.23;;;2.20;;
10174;SDS011;18221;38.704;0.152;2023-04-27T13:48:38;4.27;;;1.70;;
10174;SDS011;18221;38.704;0.152;2023-04-27T13:51:08;4.63;;;2.03;;
10174;SDS011;18221;38.704;0.152;2023-04-27T13:53:37;6.47;;;2.20;;
10174;SDS011;18221;38.704;0.152;2023-04-27T13:56:05;2.93;;;1.87;;
10174;SDS011;18221;38.704;0.152;2023-04-27T13:58:34;3.57;;;1.77;;
10174;SDS011;18221;38.704;0.152;2023-04-27T14:01:02;4.97;;;2.03;;
10174;SDS011;18221;38.704;0.152;2023-04-27T14:03:31;3.83;;;2.10;;
10174;SDS011;18221;38.704;0.152;2023-04-27T14:06:00;3.63;;;2.10;;
10174;SDS011;18221;38.704;0.152;2023-04-27T14:08:30;3.13;;;2.00;;
10174;SDS011;18221;38.704;0.152;2023-04-27T14:10:59;3.67;;;1.90;;
10174;SDS011;18221;38.704;0.152;2023-04-27T14:13:31;3.17;;;1.90;;
10174;SDS011;18221;38.704;0.152;2023-04-27T14:16:00;4.97;;;2.00;;
10174;SDS011;18221;38.704;0.152;2023-04-27T14:18:29;5.17;;;1.90;;
10174;SDS011;18221;38.704;0.152;2023-04-27T14:20:58;2.57;;;1.60;;
10174;SDS011;18221;38.704;0.152;2023-04-27T14:23:27;5.53;;;2.03;;
10174;SDS011;18221;38.704;0.152;2023-04-27T14:25:59;4.20;;;2.10;;
10174;SDS011;18221;38.704;0.152;2023-04-27T14:28:36;5.47;;;1.90;;
10174;SDS011;18221;38.704;0.152;2023-04-27T14:31:05;9.03;;;2.33;;
10174;SDS011;18221;38.704;0.152;2023-04-27T14:33:33;5.23;;;1.87;;
10174;SDS011;18221;38.704;0.152;2023-04-27T14:36:03;5.73;;;1.73;;
10174;SDS011;18221;38.704;0.152;2023-04-27T14:38:33;6.47;;;2.00;;
10174;SDS011;18221;38.704;0.152;2023-04-27T14:41:01;4.23;;;2.00;;
10174;SDS011;18221;38.704;0.152;2023-04-27T14:43:30;5.60;;;2.10;;
10174;SDS011;18221;38.704;0.152;2023-04-27T14:45:58;5.83;;;1.93;;
10174;SDS011;18221;38.704;0.152;2023-04-27T14:48:27;4.97;;;1.90;;
10174;SDS011;18221;38.704;0.152;2023-04-27T14:50:55;5.20;;;1.73;;
10174;SDS011;18221;38.704;0.152;2023-04-27T14:53:40;4.90;;;2.27;;
10174;SDS011;18221;38.704;0.152;2023-04-27T14:56:09;3.83;;;1.80;;
10174;SDS011;18221;38.704;0.152;2023-04-27T14:58:38;5.93;;;1.93;;
10174;SDS011;18221;38.704;0.152;2023-04-27T15:01:07;4.73;;;2.00;;
10174;SDS011;18221;38.704;0.152;2023-04-27T15:03:36;8.27;;;2.10;;
10174;SDS011;18221;38.704;0.152;2023-04-27T15:06:04;5.67;;;2.70;;
10174;SDS011;18221;38.704;0.152;2023-04-27T15:08:33;4.87;;;2.23;;
10174;SDS011;18221;38.704;0.152;2023-04-27T15:11:03;4.23;;;2.00;;